Atlantic - Newfoundland: Past 24 Hour Conditions

 

Blanc-Sablon Airport

10:00 AM AST 28 November 2014
This table is a summary of hourly weather conditions for the past 24 hours.
Date / Time
(AST)
Wind(knots) Conditions Visibility(km) Pressure(kPa) Air tempC) Relative humidity(%) Dew pointC) Wind Chill
28 November 2014
10:00 N 18 Partly Cloudy 24 101.4 -9 61 -15 -19
9:00 N 13 gust 20 Mostly Cloudy 24 101.3 -10 66 -15 -18
8:00 N 14 gust 21 Mostly Cloudy 24 101.2 -10 67 -15 -19
7:00 N 13 gust 23 Mostly Cloudy 24 101.1 -9 69 -14 -18
6:00 N 18 gust 24 Light Snow 24 101.1 -9 67 -14 -18
5:00 N 14 gust 24 Light Snow 16 101.0 -9 69 -13 -17
4:00 N 17 gust 29 Light Snow 16 100.9 -8 69 -13 -17
3:00 N 20 gust 28 Light Snow 16 100.8 -8 71 -12 -17
2:00 N 18 gust 29 Light Snow 13 100.6 -7 71 -11 -16
1:00 N 21 gust 31 Light Snow 13 100.5 -7 73 -11 -17
0:00 NNE 22 gust 35 Light Snow 13 100.4 -7 75 -11 -17
27 November 2014
23:00 NNE 24 gust 35 Light Snow 13 100.4 -7 76 -10 -17
22:00 NNE 21 gust 29 Light Snow 3 100.4 -6 79 -9 -15
21:00 NNE 22 gust 32 Light Snow 1 100.3 -6 79 -9 -15
20:00 NNE 22 gust 35 Light Snow 1 100.3 -6 84 -9 -16
19:00 NNE 24 gust 35 Light Snow 1 100.2 -6 88 -8 -16
18:00 NNE 27 gust 36 Light Snow 1 100.3 -6 88 -8 -17
17:00 NNE 24 gust 35 Light Snow 2 100.4 -6 88 -8 -16
16:00 NNE 24 gust 38 Light Snow 2 100.4 -6 86 -8 -16
15:00 NE 27 gust 34 Light Snow 2 100.4 -6 86 -8 -16
14:00 NE 28 Light Snow 0.4 100.5 -6 88 -7 -16
13:00 NE 20 gust 25 Light Snow 1 100.7 -5 87 -7 -14
12:00 NE 20 gust 26 Light Snow 1 100.8 -5 89 -7 -14
11:00 NE 20 Light Snow 2 101.1 -5 88 -7 -14
10:00 NE 14 Light Snow 1 101.3 -5 89 -6 -12
 
Map of Atlantic - Newfoundland marine weather areas Southwestern Grand Banks - 44138 Banquereau - 44139 Tail of the Bank - 44140 Nickerson Bank - 44251 Northeast Burgeo Bank - 44255 Blanc-Sablon Airport Cap Whittle Chevery Natashquan Airport Heath Point Miscou Island Grand Étang Ingonish Beach North Mountain St.Paul Island J.A. Douglas McCurdy Sydney Airport Charlottetown Airport East Point North Cape Argentia Bonavista Burgeo Cape Race Corner Brook Daniel's Harbour Englee Ferolle Point La Scie Port aux Basques Rocky Harbour Sagona Island St. Anthony Airport St. John's Int'l Airport St. Lawrence Stephenville Airport Twillingate Winterland Wreckhouse Cartwright Airport Mary's Harbour Grates Cove Pool's Island Marticot Island Long Pond Îles de la Madeleine Airport
Legend: buoyBuoy land stationLand Station